sensor_id;sensor_type;location;lat;lon;timestamp;pressure;altitude;pressure_sealevel;temperature;humidity
79780;BME280;69258;52.050;10.334;2023-07-30T00:02:20;98953.22;;;23.56;56.70
79780;BME280;69258;52.050;10.334;2023-07-30T00:17:22;98960.94;;;23.52;57.14
79780;BME280;69258;52.050;10.334;2023-07-30T00:32:25;98955.56;;;23.52;56.48
79780;BME280;69258;52.050;10.334;2023-07-30T00:47:27;98969.25;;;23.50;56.95
79780;BME280;69258;52.050;10.334;2023-07-30T01:02:29;98985.03;;;23.47;56.45
79780;BME280;69258;52.050;10.334;2023-07-30T01:17:32;98985.88;;;23.47;56.52
79780;BME280;69258;52.050;10.334;2023-07-30T01:32:35;98999.53;;;23.46;57.18
79780;BME280;69258;52.050;10.334;2023-07-30T01:47:42;99009.25;;;23.47;56.91
79780;BME280;69258;52.050;10.334;2023-07-30T02:02:44;99020.47;;;23.44;56.91
79780;BME280;69258;52.050;10.334;2023-07-30T02:17:47;99028.56;;;23.44;57.09
79780;BME280;69258;52.050;10.334;2023-07-30T02:32:50;99029.00;;;23.41;57.03
79780;BME280;69258;52.050;10.334;2023-07-30T02:47:51;99032.97;;;23.38;57.07
79780;BME280;69258;52.050;10.334;2023-07-30T03:02:53;99038.59;;;23.37;57.00
79780;BME280;69258;52.050;10.334;2023-07-30T03:17:56;99047.16;;;23.34;56.44
79780;BME280;69258;52.050;10.334;2023-07-30T03:32:59;99048.19;;;23.33;56.93
79780;BME280;69258;52.050;10.334;2023-07-30T03:48:01;99045.72;;;23.31;56.61
79780;BME280;69258;52.050;10.334;2023-07-30T04:03:02;99064.56;;;23.31;56.70
79780;BME280;69258;52.050;10.334;2023-07-30T04:18:05;99075.31;;;23.31;56.49
79780;BME280;69258;52.050;10.334;2023-07-30T04:33:08;99086.66;;;23.33;56.90
79780;BME280;69258;52.050;10.334;2023-07-30T04:48:11;99092.59;;;23.35;56.50
79780;BME280;69258;52.050;10.334;2023-07-30T05:03:13;99091.28;;;23.38;56.17
79780;BME280;69258;52.050;10.334;2023-07-30T05:18:14;99083.22;;;23.38;56.38
79780;BME280;69258;52.050;10.334;2023-07-30T05:33:17;99086.88;;;23.43;55.87
79780;BME280;69258;52.050;10.334;2023-07-30T05:48:20;99084.19;;;23.43;55.95
79780;BME280;69258;52.050;10.334;2023-07-30T06:03:22;99090.03;;;23.40;55.96
79780;BME280;69258;52.050;10.334;2023-07-30T06:18:24;99106.75;;;23.42;56.36
79780;BME280;69258;52.050;10.334;2023-07-30T06:33:26;99114.59;;;23.44;55.90
79780;BME280;69258;52.050;10.334;2023-07-30T06:48:28;99111.09;;;23.43;56.23
79780;BME280;69258;52.050;10.334;2023-07-30T07:03:31;99117.28;;;23.44;55.65
79780;BME280;69258;52.050;10.334;2023-07-30T07:18:33;99114.34;;;23.45;56.08
79780;BME280;69258;52.050;10.334;2023-07-30T07:33:34;99132.94;;;23.47;55.80
79780;BME280;69258;52.050;10.334;2023-07-30T07:48:37;99133.78;;;23.47;55.58
79780;BME280;69258;52.050;10.334;2023-07-30T08:03:39;99130.84;;;23.49;55.33
79780;BME280;69258;52.050;10.334;2023-07-30T08:18:42;99132.25;;;23.52;55.84
79780;BME280;69258;52.050;10.334;2023-07-30T08:33:43;99113.66;;;23.50;55.76
79780;BME280;69258;52.050;10.334;2023-07-30T08:48:46;99113.41;;;23.52;55.83
79780;BME280;69258;52.050;10.334;2023-07-30T09:03:52;99112.94;;;23.55;55.21
79780;BME280;69258;52.050;10.334;2023-07-30T09:18:55;99117.00;;;23.57;55.75
79780;BME280;69258;52.050;10.334;2023-07-30T09:33:58;99124.03;;;23.58;55.37
79780;BME280;69258;52.050;10.334;2023-07-30T09:49:02;99137.81;;;23.62;55.33
79780;BME280;69258;52.050;10.334;2023-07-30T10:04:08;99148.59;;;23.62;55.57
79780;BME280;69258;52.050;10.334;2023-07-30T10:19:11;99156.91;;;23.60;55.36
79780;BME280;69258;52.050;10.334;2023-07-30T10:34:13;99168.13;;;23.57;55.01
79780;BME280;69258;52.050;10.334;2023-07-30T10:49:15;99184.50;;;23.56;55.46
79780;BME280;69258;52.050;10.334;2023-07-30T11:04:20;99199.34;;;23.58;55.10
79780;BME280;69258;52.050;10.334;2023-07-30T11:19:22;99211.28;;;23.62;55.55
79780;BME280;69258;52.050;10.334;2023-07-30T11:34:26;99198.31;;;23.59;55.82
79780;BME280;69258;52.050;10.334;2023-07-30T11:49:28;99201.00;;;23.59;55.16
79780;BME280;69258;52.050;10.334;2023-07-30T12:04:50;99197.25;;;23.60;55.57
79780;BME280;69258;52.050;10.334;2023-07-30T12:20:11;99191.75;;;23.67;55.10
79780;BME280;69258;52.050;10.334;2023-07-30T12:35:14;99195.81;;;23.69;54.96
79780;BME280;69258;52.050;10.334;2023-07-30T12:50:15;99196.88;;;23.68;55.63
79780;BME280;69258;52.050;10.334;2023-07-30T13:05:17;99193.97;;;23.70;54.94
79780;BME280;69258;52.050;10.334;2023-07-30T13:20:20;99183.19;;;23.70;55.33
79780;BME280;69258;52.050;10.334;2023-07-30T13:35:23;99152.22;;;23.67;55.60
79780;BME280;69258;52.050;10.334;2023-07-30T13:50:25;99156.84;;;23.72;55.08
79780;BME280;69258;52.050;10.334;2023-07-30T14:05:28;99153.38;;;23.71;54.85
79780;BME280;69258;52.050;10.334;2023-07-30T14:20:30;99142.34;;;23.73;55.13
79780;BME280;69258;52.050;10.334;2023-07-30T14:35:33;99145.66;;;23.75;55.54
79780;BME280;69258;52.050;10.334;2023-07-30T14:50:35;99156.75;;;23.78;55.09
79780;BME280;69258;52.050;10.334;2023-07-30T15:05:38;99160.81;;;23.81;55.35
79780;BME280;69258;52.050;10.334;2023-07-30T15:20:42;99167.84;;;23.82;54.95
79780;BME280;69258;52.050;10.334;2023-07-30T15:35:44;99183.50;;;23.85;54.88
79780;BME280;69258;52.050;10.334;2023-07-30T15:50:47;99234.28;;;23.81;55.24
79780;BME280;69258;52.050;10.334;2023-07-30T16:05:50;99237.00;;;23.81;55.35
79780;BME280;69258;52.050;10.334;2023-07-30T16:21:03;99220.84;;;23.81;55.30
79780;BME280;69258;52.050;10.334;2023-07-30T16:36:06;99206.91;;;23.84;54.91
79780;BME280;69258;52.050;10.334;2023-07-30T16:51:08;99201.53;;;23.84;55.53
79780;BME280;69258;52.050;10.334;2023-07-30T17:06:10;99216.84;;;23.84;55.14
79780;BME280;69258;52.050;10.334;2023-07-30T17:21:12;99236.28;;;23.86;55.06
79780;BME280;69258;52.050;10.334;2023-07-30T17:36:14;99238.72;;;23.87;55.07
79780;BME280;69258;52.050;10.334;2023-07-30T17:51:17;99239.81;;;23.86;55.49
79780;BME280;69258;52.050;10.334;2023-07-30T18:06:20;99255.34;;;23.84;55.71
79780;BME280;69258;52.050;10.334;2023-07-30T18:21:22;99256.41;;;23.83;55.85
79780;BME280;69258;52.050;10.334;2023-07-30T18:36:25;99258.75;;;23.80;55.45
79780;BME280;69258;52.050;10.334;2023-07-30T18:51:27;99268.69;;;23.79;55.96
79780;BME280;69258;52.050;10.334;2023-07-30T19:06:29;99267.06;;;23.78;55.92
79780;BME280;69258;52.050;10.334;2023-07-30T19:21:31;99269.63;;;23.73;56.04
79780;BME280;69258;52.050;10.334;2023-07-30T19:36:33;99279.22;;;23.69;56.06
79780;BME280;69258;52.050;10.334;2023-07-30T19:51:36;99269.75;;;23.67;56.01
79780;BME280;69258;52.050;10.334;2023-07-30T20:06:39;99275.63;;;23.64;55.63
79780;BME280;69258;52.050;10.334;2023-07-30T20:21:41;99276.66;;;23.63;55.98
79780;BME280;69258;52.050;10.334;2023-07-30T20:36:43;99270.94;;;23.59;55.65
79780;BME280;69258;52.050;10.334;2023-07-30T20:51:45;99280.03;;;23.58;55.76
79780;BME280;69258;52.050;10.334;2023-07-30T21:06:48;99269.53;;;23.57;55.59
79780;BME280;69258;52.050;10.334;2023-07-30T21:21:50;99239.56;;;23.53;55.52
79780;BME280;69258;52.050;10.334;2023-07-30T21:36:53;99239.00;;;23.51;56.03
79780;BME280;69258;52.050;10.334;2023-07-30T21:51:55;99233.84;;;23.49;56.31
79780;BME280;69258;52.050;10.334;2023-07-30T22:06:57;99227.88;;;23.47;55.76
79780;BME280;69258;52.050;10.334;2023-07-30T22:21:59;99221.69;;;23.47;55.86
79780;BME280;69258;52.050;10.334;2023-07-30T22:37:02;99238.88;;;23.46;56.17
79780;BME280;69258;52.050;10.334;2023-07-30T22:52:05;99236.44;;;23.44;56.17
79780;BME280;69258;52.050;10.334;2023-07-30T23:07:07;99237.69;;;23.42;55.89
79780;BME280;69258;52.050;10.334;2023-07-30T23:22:10;99228.19;;;23.39;56.17
79780;BME280;69258;52.050;10.334;2023-07-30T23:37:12;99204.22;;;23.38;55.94
79780;BME280;69258;52.050;10.334;2023-07-30T23:52:13;99193.72;;;23.36;55.63
